createdAt,value
2022-09-26T00:02:03.203Z,49.65
2022-09-26T00:04:49.192Z,49.51
2022-09-26T00:07:35.079Z,49.79
2022-09-26T00:10:21.017Z,49.86
2022-09-26T00:13:07.675Z,49.96
2022-09-26T00:15:55.150Z,49.73
2022-09-26T00:18:41.528Z,49.66
2022-09-26T00:21:29.448Z,49.85
2022-09-26T00:24:15.330Z,49.87
2022-09-26T00:27:01.346Z,49.80
2022-09-26T00:29:47.336Z,50.17
2022-09-26T00:32:33.298Z,50.09
2022-09-26T00:35:19.683Z,49.87
2022-09-26T00:38:05.960Z,50.01
2022-09-26T00:40:52.121Z,49.94
2022-09-26T00:43:42.692Z,50.14
2022-09-26T00:46:34.936Z,49.93
2022-09-26T00:49:23.875Z,50.04
2022-09-26T00:52:25.186Z,50.23
2022-09-26T00:55:14.199Z,50.21
2022-09-26T00:58:24.933Z,50.32
2022-09-26T01:01:11.949Z,50.20
2022-09-26T01:03:58.922Z,50.41
2022-09-26T01:06:46.095Z,50.17
2022-09-26T01:09:32.402Z,50.13
2022-09-26T01:12:18.964Z,50.41
2022-09-26T01:15:08.968Z,50.18
2022-09-26T01:17:55.802Z,50.37
2022-09-26T01:20:51.885Z,50.38
2022-09-26T01:23:56.784Z,50.26
2022-09-26T01:26:58.328Z,50.48
2022-09-26T01:30:12.974Z,50.49
2022-09-26T01:33:09.924Z,50.52
2022-09-26T01:36:02.093Z,50.48
2022-09-26T01:38:59.408Z,50.89
2022-09-26T01:42:00.710Z,50.41
2022-09-26T01:45:13.530Z,50.42
2022-09-26T01:48:06.194Z,50.67
2022-09-26T01:51:00.924Z,50.57
2022-09-26T01:53:50.295Z,50.78
2022-09-26T01:56:39.162Z,50.68
2022-09-26T01:59:31.854Z,50.92
2022-09-26T02:02:30.005Z,50.85
2022-09-26T02:05:29.514Z,51.02
2022-09-26T02:08:18.840Z,50.92
2022-09-26T02:11:09.959Z,50.91
2022-09-26T02:14:07.436Z,51.08
2022-09-26T02:17:01.185Z,51.02
2022-09-26T02:19:53.259Z,51.02
2022-09-26T02:22:40.053Z,50.96
2022-09-26T02:25:28.399Z,51.10
2022-09-26T02:28:16.119Z,50.97
2022-09-26T02:31:06.049Z,51.46
2022-09-26T02:33:53.026Z,51.23
2022-09-26T02:36:39.333Z,51.42
2022-09-26T02:39:25.521Z,51.57
2022-09-26T02:42:38.104Z,51.59
2022-09-26T02:45:39.150Z,51.57
2022-09-26T02:49:02.877Z,51.58
2022-09-26T02:52:04.281Z,51.79
2022-09-26T02:55:14.877Z,51.82
2022-09-26T02:58:10.200Z,51.70
2022-09-26T03:01:23.861Z,51.81
2022-09-26T03:04:20.034Z,51.57
2022-09-26T03:07:12.324Z,51.78
2022-09-26T03:10:00.869Z,51.92
2022-09-26T03:12:48.145Z,51.78
2022-09-26T03:15:35.419Z,51.96
2022-09-26T03:18:28.570Z,52.10
2022-09-26T03:21:15.086Z,51.91
2022-09-26T03:24:01.441Z,52.00
2022-09-26T03:26:47.996Z,52.20
2022-09-26T03:29:34.040Z,52.18
2022-09-26T03:32:23.380Z,51.86
2022-09-26T03:35:09.700Z,52.12
2022-09-26T03:37:55.585Z,52.48
2022-09-26T03:40:42.589Z,52.00
2022-09-26T03:43:47.156Z,52.06
2022-09-26T03:46:38.986Z,52.29
2022-09-26T03:49:26.985Z,52.19
2022-09-26T03:52:13.394Z,52.29
2022-09-26T03:55:01.240Z,52.21
2022-09-26T03:57:48.070Z,52.23
2022-09-26T04:00:43.716Z,52.33
2022-09-26T04:03:33.076Z,52.28
2022-09-26T04:06:20.958Z,52.40
2022-09-26T04:09:16.553Z,52.26
2022-09-26T04:12:07.846Z,52.26
2022-09-26T04:14:56.696Z,52.43
2022-09-26T04:17:43.323Z,52.30
2022-09-26T04:20:29.485Z,52.41
2022-09-26T04:23:15.456Z,52.40
2022-09-26T04:26:05.781Z,52.43
2022-09-26T04:28:55.475Z,52.99
2022-09-26T04:31:45.175Z,52.52
2022-09-26T04:34:33.346Z,52.55
2022-09-26T04:37:21.063Z,52.54
2022-09-26T04:40:08.012Z,52.57
2022-09-26T04:42:56.650Z,52.49
2022-09-26T04:45:43.301Z,52.71
2022-09-26T04:48:29.797Z,52.44
2022-09-26T04:51:22.325Z,53.21
2022-09-26T04:54:09.858Z,53.23
2022-09-26T04:57:00.313Z,53.05
2022-09-26T04:59:46.180Z,52.98
2022-09-26T05:02:32.221Z,53.48
2022-09-26T05:05:18.610Z,53.09
2022-09-26T05:08:05.878Z,52.89
2022-09-26T05:10:56.833Z,52.93
2022-09-26T05:13:43.721Z,52.97
2022-09-26T05:16:30.468Z,52.79
2022-09-26T05:19:21.320Z,52.92
2022-09-26T05:22:31.491Z,52.71
2022-09-26T05:25:36.674Z,53.16
2022-09-26T05:28:23.054Z,53.03
2022-09-26T05:31:09.022Z,53.04
2022-09-26T05:33:58.738Z,53.07
2022-09-26T05:36:44.960Z,53.23
2022-09-26T05:40:00.086Z,53.14
2022-09-26T05:42:47.257Z,53.27
2022-09-26T05:45:33.567Z,53.18
2022-09-26T05:48:21.605Z,53.18
2022-09-26T05:51:15.665Z,53.30
2022-09-26T05:54:03.572Z,53.28
2022-09-26T05:56:52.989Z,53.54
2022-09-26T05:59:55.534Z,53.40
2022-09-26T06:02:42.074Z,53.38
2022-09-26T06:05:45.499Z,53.72
2022-09-26T06:08:36.772Z,53.70
2022-09-26T06:11:41.233Z,53.80
2022-09-26T06:14:27.268Z,53.53
2022-09-26T06:17:13.585Z,53.62
2022-09-26T06:19:59.621Z,53.45
2022-09-26T06:22:46.166Z,53.71
2022-09-26T06:25:32.168Z,53.42
2022-09-26T06:28:20.530Z,53.59
2022-09-26T06:31:10.892Z,53.51
2022-09-26T06:34:23.010Z,53.55
2022-09-26T06:37:35.181Z,53.47
2022-09-26T06:40:21.353Z,53.40
2022-09-26T06:43:07.041Z,53.94
2022-09-26T06:46:12.703Z,53.48
2022-09-26T06:49:30.243Z,53.82
2022-09-26T06:52:29.953Z,53.58
2022-09-26T06:55:16.220Z,53.63
2022-09-26T06:58:03.244Z,53.72
2022-09-26T07:00:56.565Z,53.65
2022-09-26T07:04:04.206Z,53.68
2022-09-26T07:06:58.374Z,54.44
2022-09-26T07:09:44.502Z,53.81
2022-09-26T07:12:53.145Z,53.95
2022-09-26T07:15:40.164Z,53.99
2022-09-26T07:18:46.582Z,53.94
2022-09-26T07:21:36.305Z,53.89
2022-09-26T07:24:27.319Z,54.38
2022-09-26T07:27:14.213Z,54.35
2022-09-26T07:30:00.421Z,54.45
2022-09-26T07:32:47.902Z,54.09
2022-09-26T07:36:09.796Z,54.02
2022-09-26T07:38:56.311Z,54.02
2022-09-26T07:41:46.032Z,54.03
2022-09-26T07:47:57.410Z,54.07
2022-09-26T07:51:16.275Z,54.00
2022-09-26T07:54:07.072Z,54.49
2022-09-26T07:57:22.627Z,54.36
2022-09-26T08:00:21.539Z,54.03
2022-09-26T08:03:29.594Z,53.87
2022-09-26T08:06:20.331Z,53.87
2022-09-26T08:09:06.397Z,54.27
2022-09-26T08:12:11.175Z,54.56
2022-09-26T08:15:08.361Z,54.72
2022-09-26T08:17:59.632Z,54.44
2022-09-26T08:20:47.805Z,54.38
2022-09-26T08:23:34.433Z,54.75
2022-09-26T08:26:44.080Z,54.84
2022-09-26T08:29:37.821Z,54.62
2022-09-26T08:32:23.913Z,55.40
2022-09-26T08:35:14.853Z,55.69
2022-09-26T08:38:30.385Z,56.01
2022-09-26T08:42:13.819Z,56.33
2022-09-26T08:45:28.903Z,56.84
2022-09-26T08:48:55.761Z,56.74
2022-09-26T08:51:46.200Z,55.65
2022-09-26T08:54:41.928Z,55.85
2022-09-26T08:57:34.302Z,55.95
2022-09-26T09:00:25.942Z,55.03
2022-09-26T09:03:38.032Z,56.39
2022-09-26T09:06:28.145Z,55.22
2022-09-26T09:09:18.107Z,54.61
2022-09-26T09:12:41.748Z,54.37
2022-09-26T09:16:14.927Z,54.52
2022-09-26T09:19:29.829Z,54.70
2022-09-26T09:22:56.036Z,55.07
2022-09-26T09:25:46.316Z,55.06
2022-09-26T09:28:52.195Z,54.67
2022-09-26T09:31:43.463Z,54.38
2022-09-26T09:35:02.541Z,54.50
2022-09-26T09:38:28.439Z,54.23
2022-09-26T09:41:42.096Z,54.41
2022-09-26T09:44:36.798Z,55.02
2022-09-26T09:47:26.641Z,55.25
2022-09-26T09:50:38.683Z,55.08
2022-09-26T09:53:51.378Z,55.86
2022-09-26T09:56:47.585Z,54.88
2022-09-26T09:59:36.564Z,54.83
2022-09-26T10:02:44.165Z,54.79
2022-09-26T10:05:46.742Z,55.18
2022-09-26T10:08:50.905Z,55.45
2022-09-26T10:11:56.833Z,54.64
2022-09-26T10:15:06.748Z,54.78
2022-09-26T10:18:24.595Z,54.10
2022-09-26T10:21:33.045Z,54.71
2022-09-26T10:24:27.463Z,54.20
2022-09-26T10:27:22.256Z,54.53
2022-09-26T10:30:18.381Z,54.32
2022-09-26T10:33:06.185Z,54.63
2022-09-26T10:36:12.293Z,54.43
2022-09-26T10:39:36.084Z,54.41
2022-09-26T10:42:23.139Z,55.35
2022-09-26T10:45:21.280Z,54.49
2022-09-26T10:48:37.961Z,55.61
2022-09-26T10:51:50.469Z,55.29
2022-09-26T10:54:42.825Z,54.76
2022-09-26T10:57:35.358Z,54.42
2022-09-26T11:00:38.174Z,54.51
2022-09-26T11:03:41.976Z,54.76
2022-09-26T11:06:44.251Z,54.73
2022-09-26T11:09:49.042Z,54.18
2022-09-26T11:13:20.661Z,54.32
2022-09-26T11:16:15.654Z,54.25
2022-09-26T11:19:42.746Z,54.15
2022-09-26T11:22:42.649Z,54.99
2022-09-26T11:25:33.904Z,54.32
2022-09-26T11:28:27.177Z,54.04
2022-09-26T11:31:41.064Z,53.96
2022-09-26T11:35:03.277Z,53.98
2022-09-26T11:38:11.434Z,53.86
2022-09-26T11:41:07.509Z,54.14
2022-09-26T11:44:00.782Z,54.11
2022-09-26T11:47:38.504Z,54.08
2022-09-26T11:50:41.153Z,54.42
2022-09-26T11:53:51.615Z,54.32
2022-09-26T11:56:47.362Z,54.45
2022-09-26T11:59:45.553Z,54.46
2022-09-26T12:02:48.883Z,54.75
2022-09-26T12:05:38.116Z,54.49
2022-09-26T12:08:42.184Z,55.06
2022-09-26T12:11:53.205Z,54.94
2022-09-26T12:15:02.334Z,55.01
2022-09-26T12:18:06.252Z,55.22
2022-09-26T12:21:06.983Z,55.17
2022-09-26T12:24:07.398Z,55.21
2022-09-26T12:27:01.032Z,55.21
2022-09-26T12:30:15.930Z,55.55
2022-09-26T12:33:10.690Z,55.28
2022-09-26T12:36:06.191Z,55.65
2022-09-26T12:39:14.946Z,55.83
2022-09-26T12:42:16.447Z,56.08
2022-09-26T12:45:22.066Z,56.14
2022-09-26T12:48:07.798Z,55.90
2022-09-26T12:51:01.005Z,56.41
2022-09-26T12:54:02.310Z,56.49
2022-09-26T12:56:58.232Z,56.67
2022-09-26T13:00:13.099Z,56.60
2022-09-26T13:03:06.235Z,56.67
2022-09-26T13:06:14.872Z,56.78
2022-09-26T13:09:48.678Z,56.64
2022-09-26T13:12:46.743Z,56.76
2022-09-26T13:15:55.201Z,57.08
2022-09-26T13:18:48.293Z,56.97
2022-09-26T13:21:44.925Z,57.17
2022-09-26T13:24:46.863Z,56.98
2022-09-26T13:27:38.370Z,56.96
2022-09-26T13:30:27.448Z,58.07
2022-09-26T13:33:20.831Z,57.86
2022-09-26T13:36:09.664Z,57.56
2022-09-26T13:39:03.548Z,57.78
2022-09-26T13:41:52.465Z,57.59
2022-09-26T13:44:56.408Z,58.23
2022-09-26T13:47:50.996Z,57.85
2022-09-26T13:50:41.880Z,57.86
2022-09-26T13:53:34.121Z,57.98
2022-09-26T13:56:36.503Z,57.97
2022-09-26T13:59:26.249Z,58.30
2022-09-26T14:02:32.175Z,58.89
2022-09-26T14:05:18.362Z,58.17
2022-09-26T14:08:42.698Z,58.40
2022-09-26T14:11:49.898Z,58.33
2022-09-26T14:14:44.158Z,58.42
2022-09-26T14:17:42.434Z,58.51
2022-09-26T14:20:31.156Z,58.39
2022-09-26T14:23:37.636Z,58.81
2022-09-26T14:26:28.137Z,58.49
2022-09-26T14:29:28.650Z,58.71
2022-09-26T14:32:38.034Z,58.51
2022-09-26T14:35:32.452Z,58.72
2022-09-26T14:38:21.095Z,58.55
2022-09-26T14:41:17.217Z,58.74
2022-09-26T14:44:17.346Z,59.30
2022-09-26T14:47:07.011Z,58.74
2022-09-26T14:50:04.289Z,58.82
2022-09-26T14:52:52.598Z,58.79
2022-09-26T14:55:55.018Z,58.94
2022-09-26T14:58:51.389Z,58.87
2022-09-26T15:01:38.371Z,58.85
2022-09-26T15:04:24.871Z,58.60
2022-09-26T15:07:20.672Z,58.78
2022-09-26T15:10:20.642Z,58.83
2022-09-26T15:13:20.819Z,59.01
2022-09-26T15:16:17.904Z,59.05
2022-09-26T15:19:11.657Z,58.94
2022-09-26T15:22:06.635Z,59.49
2022-09-26T15:25:06.907Z,59.59
2022-09-26T15:27:54.795Z,60.37
2022-09-26T15:30:41.994Z,59.83
2022-09-26T15:33:27.940Z,59.51
2022-09-26T15:36:17.049Z,59.35
2022-09-26T15:39:29.823Z,60.28
2022-09-26T15:42:46.202Z,60.00
2022-09-26T15:45:47.852Z,60.11
2022-09-26T15:48:34.250Z,59.58
2022-09-26T15:51:28.392Z,59.81
2022-09-26T15:54:21.750Z,59.48
2022-09-26T15:57:10.242Z,59.34
2022-09-26T15:59:57.367Z,59.52
2022-09-26T16:02:43.846Z,59.47
2022-09-26T16:05:30.036Z,59.42
2022-09-26T16:08:21.899Z,59.59
2022-09-26T16:11:08.093Z,59.57
2022-09-26T16:13:56.554Z,59.50
2022-09-26T16:16:42.729Z,59.77
2022-09-26T16:19:36.155Z,59.76
2022-09-26T16:22:36.939Z,60.04
2022-09-26T16:25:49.554Z,60.03
2022-09-26T16:28:42.703Z,59.91
2022-09-26T16:31:49.318Z,59.78
2022-09-26T16:34:35.567Z,60.23
2022-09-26T16:37:25.661Z,59.69
2022-09-26T16:40:18.733Z,60.72
2022-09-26T16:43:18.973Z,60.49
2022-09-26T16:46:17.924Z,60.40
2022-09-26T16:49:32.048Z,60.50
2022-09-26T16:52:30.231Z,60.50
2022-09-26T16:55:16.592Z,60.47
2022-09-26T16:58:05.170Z,60.50
2022-09-26T17:01:09.808Z,60.38
2022-09-26T17:03:57.351Z,60.25
2022-09-26T17:06:44.114Z,60.50
2022-09-26T17:09:31.651Z,60.85
2022-09-26T17:12:20.642Z,60.66
2022-09-26T17:15:08.385Z,60.66
2022-09-26T17:17:55.163Z,61.07
2022-09-26T17:20:44.337Z,60.83
2022-09-26T17:23:42.005Z,60.97
2022-09-26T17:26:29.944Z,60.72
2022-09-26T17:29:31.940Z,61.14
2022-09-26T17:32:22.363Z,61.32
2022-09-26T17:35:16.827Z,61.49
2022-09-26T17:38:02.905Z,61.97
2022-09-26T17:40:49.487Z,63.56
2022-09-26T17:43:35.664Z,62.63
2022-09-26T17:46:22.396Z,61.95
2022-09-26T17:49:27.091Z,62.78
2022-09-26T17:52:24.584Z,63.09
2022-09-26T17:55:11.326Z,62.14
2022-09-26T17:57:58.559Z,61.75
2022-09-26T18:00:45.116Z,61.67
2022-09-26T18:03:33.421Z,61.68
2022-09-26T18:06:22.618Z,61.67
2022-09-26T18:09:10.417Z,61.86
2022-09-26T18:12:00.695Z,62.05
2022-09-26T18:14:47.102Z,61.80
2022-09-26T18:17:33.120Z,61.85
2022-09-26T18:20:21.497Z,61.68
2022-09-26T18:23:08.170Z,61.89
2022-09-26T18:25:56.657Z,61.97
2022-09-26T18:28:42.922Z,62.06
2022-09-26T18:31:30.769Z,62.03
2022-09-26T18:34:19.871Z,61.99
2022-09-26T18:37:06.708Z,61.91
2022-09-26T18:39:55.764Z,62.21
2022-09-26T18:42:46.797Z,61.94
2022-09-26T18:45:36.560Z,62.24
2022-09-26T18:48:32.930Z,62.25
2022-09-26T18:51:19.213Z,62.09
2022-09-26T18:54:11.626Z,62.49
2022-09-26T18:57:16.046Z,62.28
2022-09-26T19:00:02.775Z,62.15
2022-09-26T19:02:50.421Z,62.24
2022-09-26T19:05:38.929Z,65.02
2022-09-26T19:08:33.154Z,63.55
2022-09-26T19:11:21.369Z,63.38
2022-09-26T19:14:13.807Z,63.04
2022-09-26T19:17:00.166Z,62.92
2022-09-26T19:19:46.590Z,63.08
2022-09-26T19:22:32.712Z,62.77
2022-09-26T19:25:18.812Z,62.84
2022-09-26T19:28:05.133Z,63.68
2022-09-26T19:30:51.556Z,64.95
2022-09-26T19:33:39.609Z,65.72
2022-09-26T19:36:25.892Z,63.58
2022-09-26T19:39:13.832Z,63.62
2022-09-26T19:41:59.741Z,65.09
2022-09-26T19:44:45.805Z,64.82
2022-09-26T19:47:33.696Z,64.10
2022-09-26T19:50:22.588Z,64.85
2022-09-26T19:53:18.515Z,63.83
2022-09-26T19:56:05.054Z,63.66
2022-09-26T19:58:52.915Z,63.29
2022-09-26T20:01:40.516Z,63.56
2022-09-26T20:04:26.983Z,63.35
2022-09-26T20:07:15.451Z,63.39
2022-09-26T20:10:02.002Z,63.60
2022-09-26T20:12:51.234Z,63.16
2022-09-26T20:15:37.720Z,63.43
2022-09-26T20:18:24.391Z,63.35
2022-09-26T20:21:13.475Z,63.10
2022-09-26T20:24:03.044Z,63.55
2022-09-26T20:26:49.222Z,63.36
2022-09-26T20:29:55.511Z,63.44
2022-09-26T20:32:42.309Z,64.00
2022-09-26T20:35:34.449Z,63.67
2022-09-26T20:38:37.158Z,63.67
2022-09-26T20:41:27.172Z,63.96
2022-09-26T20:44:21.582Z,63.96
2022-09-26T20:47:10.804Z,63.62
2022-09-26T20:49:59.493Z,64.20
2022-09-26T20:52:45.497Z,63.80
2022-09-26T20:55:32.460Z,64.04
2022-09-26T20:58:18.715Z,64.16
2022-09-26T21:01:04.723Z,63.68
2022-09-26T21:03:52.741Z,63.53
2022-09-26T21:06:38.575Z,63.55
2022-09-26T21:09:24.833Z,63.50
2022-09-26T21:12:15.173Z,63.47
2022-09-26T21:15:01.296Z,63.37
2022-09-26T21:17:47.781Z,63.35
2022-09-26T21:20:34.502Z,63.35
2022-09-26T21:23:43.652Z,63.04
2022-09-26T21:26:33.669Z,63.30
2022-09-26T21:29:19.804Z,63.25
2022-09-26T21:32:07.902Z,63.08
2022-09-26T21:35:01.927Z,62.93
2022-09-26T21:37:51.143Z,63.18
2022-09-26T21:40:38.990Z,63.15
2022-09-26T21:43:27.198Z,62.88
2022-09-26T21:46:13.470Z,62.95
2022-09-26T21:48:59.756Z,63.19
2022-09-26T21:51:48.126Z,63.10
2022-09-26T21:54:41.294Z,63.33
2022-09-26T21:57:34.276Z,63.44
2022-09-26T22:00:21.821Z,63.24
2022-09-26T22:03:07.735Z,63.40
2022-09-26T22:05:53.868Z,63.25
2022-09-26T22:08:40.392Z,63.67
2022-09-26T22:11:26.686Z,63.41
2022-09-26T22:14:13.997Z,63.32
2022-09-26T22:17:00.340Z,63.29
2022-09-26T22:19:46.136Z,63.34
2022-09-26T22:22:32.111Z,63.25
2022-09-26T22:25:18.086Z,63.38
2022-09-26T22:28:04.135Z,63.22
2022-09-26T22:30:50.169Z,63.73
2022-09-26T22:33:35.862Z,63.50
2022-09-26T22:36:21.856Z,63.23
2022-09-26T22:39:07.765Z,63.66
2022-09-26T22:41:53.995Z,63.52
2022-09-26T22:44:40.322Z,63.50
2022-09-26T22:47:26.296Z,63.49
2022-09-26T22:50:12.358Z,63.63
2022-09-26T22:52:59.168Z,63.70
2022-09-26T22:55:54.973Z,63.64
2022-09-26T22:58:46.370Z,63.50
2022-09-26T23:01:32.638Z,63.46
2022-09-26T23:04:18.958Z,63.78
2022-09-26T23:07:04.830Z,63.67
2022-09-26T23:09:50.621Z,63.77
2022-09-26T23:12:40.484Z,63.75
2022-09-26T23:15:26.565Z,63.68
2022-09-26T23:18:13.457Z,63.98
2022-09-26T23:20:59.539Z,63.69
2022-09-26T23:23:47.345Z,63.71
2022-09-26T23:26:33.541Z,63.89
2022-09-26T23:29:19.405Z,63.74
2022-09-26T23:32:05.395Z,63.75
2022-09-26T23:34:51.701Z,64.37
2022-09-26T23:37:37.836Z,64.41
2022-09-26T23:40:24.567Z,64.07
2022-09-26T23:43:10.368Z,64.04
2022-09-26T23:45:56.595Z,64.17
2022-09-26T23:48:43.183Z,64.15
2022-09-26T23:51:29.200Z,63.95
2022-09-26T23:54:15.191Z,64.24
2022-09-26T23:57:01.051Z,64.11
2022-09-26T23:59:46.908Z,64.66
